Monday, December 18, 2017, 5:44 AM EST
Back to Local

KMPO, Mt Pocono Pocono Mountains

Location: Pocono Summit, PA, United States Lat: 41.133
Local Time: 5:44 AM EST (10:44 GMT) Lon: -75.383
Time Zone: US/Eastern Elev: 1915 ft

Show me the last for .
Show Decoded

2017-12-18 05:22 METAR KMPO 181022Z AUTO 18005KT 1SM BR VV002 M01/M01 A3004 RMK AO2 T10061006 =
2017-12-18 04:53 METAR KMPO 180953Z AUTO 00000KT 1/2SM FZFG VV002 M01/M01 A3004 RMK AO2 SLP195
                 T10111011 =
2017-12-18 04:00 METAR KMPO 180900Z AUTO 00000KT 3/4SM BR VV002 M02/M02 A3006 RMK AO2 T10171017 =
2017-12-18 03:53 METAR KMPO 180853Z AUTO 00000KT 1SM BR VV002 M02/M02 A3006 RMK AO2 SLP202
                 T10171017 58005 =
2017-12-18 03:44 METAR KMPO 180844Z AUTO 00000KT 1 3/4SM BR OVC001 M02/M02 A3006 RMK AO2
                 T10171017 =
2017-12-18 02:53 METAR KMPO 180753Z AUTO 00000KT 8SM OVC003 M02/M02 A3007 RMK AO2 SLP204
                 T10171022 =
2017-12-18 01:53 METAR KMPO 180653Z AUTO 12003KT 10SM OVC003 M02/M03 A3007 RMK AO2 SLP205
                 T10221028 =
2017-12-18 01:10 METAR KMPO 180610Z AUTO 00000KT 10SM BKN004 OVC075 M02/M03 A3007 RMK AO2
                 T10221033 =
2017-12-18 01:00 METAR KMPO 180600Z AUTO 13003KT 10SM BKN005 BKN031 OVC075 M02/M03 A3008 RMK AO2
                 T10221033 =
2017-12-18 00:53 METAR KMPO 180553Z AUTO 13003KT 10SM SCT005 BKN031 OVC075 M02/M04 A3007 RMK AO2
                 SLP206 T10221039 11022 21028 58009 =
2017-12-18 00:36 METAR KMPO 180536Z AUTO 00000KT 10SM SCT005 SCT031 OVC075 M02/M04 A3009 RMK AO2
                 T10221039 =
2017-12-18 00:24 METAR KMPO 180524Z AUTO 14003KT 10SM SCT025 OVC070 M02/M04 A3009 RMK AO2
                 T10221044 =
2017-12-17 23:53 METAR KMPO 180453Z AUTO 00000KT 10SM BKN026 OVC075 M02/M04 A3009 RMK AO2 SLP213
                 T10221044 400001061 =
2017-12-17 23:50 METAR KMPO 180450Z AUTO 00000KT 10SM BKN026 OVC075 M03/M04 A3009 RMK AO2 =
2017-12-17 22:53 METAR KMPO 180353Z AUTO 10004KT 10SM OVC100 M03/M05 A3010 RMK AO2 SLP218
                 T10281050 =
2017-12-17 21:53 METAR KMPO 180253Z AUTO 11003KT 10SM OVC110 M03/M05 A3012 RMK AO2 SLP224
                 T10281050 58010 =
2017-12-17 20:53 METAR KMPO 180153Z AUTO 00000KT 10SM FEW046 OVC100 M02/M05 A3013 RMK AO2 SLP229
                 T10221050 =
2017-12-17 19:53 METAR KMPO 180053Z AUTO 13004KT 10SM BKN044 OVC110 M03/M05 A3015 RMK AO2 SLP237
                 T10281050 =
2017-12-17 18:53 METAR KMPO 172353Z AUTO 12004KT 10SM BKN120 M02/M05 A3015 RMK AO2 SLP236
                 T10221050 10000 21028 53009 =
2017-12-17 17:53 METAR KMPO 172253Z AUTO 00000KT 10SM BKN120 M02/M05 A3014 RMK AO2 SLP233
                 T10221050 =
2017-12-17 16:53 METAR KMPO 172153Z AUTO 07003KT 10SM CLR M02/M05 A3012 RMK AO2 SLP226 T10171050
                 =
2017-12-17 15:53 METAR KMPO 172053Z AUTO 09003KT 10SM CLR M02/M04 A3012 RMK AO2 SLP226 T10171044
                 56006 =
2017-12-17 14:53 METAR KMPO 171953Z AUTO 12004KT 10SM CLR M01/M04 A3012 RMK AO2 SLP225 T10111039
                 =
2017-12-17 13:53 METAR KMPO 171853Z AUTO 12005KT 10SM SCT019 M01/M04 A3012 RMK AO2 SLP225
                 T10061039 =
2017-12-17 12:53 METAR KMPO 171753Z AUTO 20004KT 10SM CLR M01/M03 A3014 RMK AO2 SLP230 T10061033
                 11006 21061 58012 =
2017-12-17 11:53 METAR KMPO 171653Z AUTO 26003KT 10SM CLR M01/M04 A3016 RMK AO2 SLP239 T10111039
                 =
2017-12-17 10:53 METAR KMPO 171553Z AUTO 00000KT 10SM OVC030 M02/M04 A3017 RMK AO2 SLP243
                 T10221044 =
2017-12-17 10:41 METAR KMPO 171541Z AUTO 00000KT 10SM OVC030 M02/M04 A3018 RMK AO2 T10221044 =
2017-12-17 09:53 METAR KMPO 171453Z AUTO 28003KT 10SM OVC028 M03/M05 A3018 RMK AO2 SLP245
                 T10331050 52004 =
2017-12-17 09:01 METAR KMPO 171401Z AUTO 28003KT 10SM OVC029 M04/M05 A3017 RMK AO2 T10441050 =
2017-12-17 08:53 METAR KMPO 171353Z AUTO 30004KT 10SM OVC030 M04/M06 A3017 RMK AO2 SLP244
                 T10441056 =
2017-12-17 07:53 METAR KMPO 171253Z AUTO 00000KT 10SM OVC031 M06/M06 A3017 RMK AO2 SLP244
                 T10611061 =
2017-12-17 06:53 METAR KMPO 171153Z AUTO 00000KT 10SM SCT023 BKN032 OVC075 M05/M06 A3016 RMK AO2
                 SLP242 T10501056 11044 21050 53006 =
2017-12-17 05:53 METAR KMPO 171053Z AUTO 00000KT 10SM OVC030 M04/M06 A3013 RMK AO2 SLP228
                 T10441056 =
2017-12-17 05:46 METAR KMPO 171046Z AUTO 35003KT 10SM OVC030 M04/M06 A3013 RMK AO2 T10441056 =

Support USWX by starting your Amazon purchase here.